Flight Track Log - Related Links

Times and Time Zones

All times are in EDT time to prevent confusion due to time zone crossing. See the CTL16 flight status page for this flight to view local times or setup timezone preferences in your user account.


Time Position Orientation Groundspeed Altitude Reporting Facility
EDT Latitude Longitude Course Direction KTS MPH feet Rate Location/Type
Thu 08:30:43 PM 39.3833 -84.5333 57° Northeast 141 162 1,800  Level Cincinnati TRACON
Thu 08:31:31 PM 39.4000 -84.5000 57° Northeast 145 167 2,400 646 Climbing Cincinnati TRACON
Thu 08:31:48 PM 39.4114 -84.4906 33° Northeast 148 170 2,500 462 Climbing Indianapolis Center
Thu 08:32:36 PM 39.4411 -84.4594 39° Northeast 163 188 2,900 564 Climbing Indianapolis Center
Thu 08:33:45 PM 39.4836 -84.4514 North 149 171 3,600 550 Climbing Indianapolis Center
Thu 08:34:47 PM 39.5136 -84.4006 53° Northeast 170 196 4,100 579 Climbing Indianapolis Center
Thu 08:35:39 PM 39.5436 -84.3569 48° Northeast 174 200 4,700 706 Climbing Indianapolis Center
Thu 08:36:46 PM 39.5833 -84.3056 45° Northeast 178 205 5,500 586 Climbing Indianapolis Center
Thu 08:37:52 PM 39.6161 -84.2625 45° Northeast 177 204 6,000 574 Climbing Indianapolis Center
Thu 08:38:41 PM 39.6514 -84.2169 45° Northeast 182 209 6,600 545 Climbing Indianapolis Center
Thu 08:39:42 PM 39.6844 -84.1669 49° Northeast 182 209 7,000 178 Climbing Indianapolis Center
Thu 08:40:56 PM 39.7311 -84.1072 45° Northeast 188 216 7,000  Level Indianapolis Center
Thu 08:41:44 PM 39.7617 -84.0658 46° Northeast 200 230 7,000  Level Indianapolis Center
Thu 08:42:50 PM 39.8039 -84.0061 47° Northeast 199 229 7,000  Level Indianapolis Center
Thu 08:43:51 PM 39.8436 -83.9542 45° Northeast 199 229 7,000  Level Indianapolis Center
Thu 08:44:52 PM 39.8811 -83.9019 47° Northeast 197 227 7,000 -45 Level Indianapolis Center
Thu 08:46:04 PM 39.9267 -83.8486 42° Northeast 196 226 6,900  Descending Indianapolis Center
Thu 08:46:59 PM 39.9644 -83.7956 47° Northeast 197 227 7,000 52 Climbing Indianapolis Center
Thu 08:48:00 PM 40.0042 -83.7436 45° Northeast 196 226 7,000 50 Level Indianapolis Center
Thu 08:49:00 PM 40.0414 -83.6936 46° Northeast 194 223 7,100  Climbing Indianapolis Center
Thu 08:49:55 PM 40.0761 -83.6489 45° Northeast 193 222 7,000 -86 Descending Indianapolis Center
Thu 08:50:10 PM 40.0794 -83.6419 58° Northeast 194 223 7,000  Level Indianapolis Center
Thu 08:50:56 PM 40.1131 -83.5992 44° Northeast 190 219 7,000  Level Indianapolis Center
Thu 08:51:12 PM 40.1192 -83.5939 33° Northeast 192 221 7,000 -109 Level Indianapolis Center
Thu 08:51:51 PM 40.1478 -83.5569 45° Northeast 191 220 6,900  Descending Indianapolis Center
Thu 08:52:13 PM 40.1575 -83.5447 44° Northeast 191 220 7,000  Climbing Indianapolis Center
Thu 08:52:58 PM 40.1914 -83.5022 44° Northeast 190 219 6,900  Descending Indianapolis Center
Thu 08:53:15 PM 40.2014 -83.4872 49° Northeast 190 219 7,000 100 Climbing Indianapolis Center
Thu 08:53:58 PM 40.2264 -83.4519 47° Northeast 189 217 7,000 -98 Level Indianapolis Center
Thu 08:54:16 PM 40.2381 -83.4372 44° Northeast 190 219 6,900  Descending Indianapolis Center
Thu 08:54:59 PM 40.2639 -83.3992 48° Northeast 189 217 7,000 97 Climbing Indianapolis Center
Thu 08:55:18 PM 40.2742 -83.3869 42° Northeast 188 216 7,000 -98 Level Indianapolis Center
Thu 08:56:00 PM 40.2986 -83.3514 48° Northeast 186 214 6,900 98 Descending Indianapolis Center
Thu 08:56:19 PM 40.3097 -83.3356 47° Northeast 188 216 7,100 75 Climbing Indianapolis Center
Thu 08:57:20 PM 40.3467 -83.2872 45° Northeast 186 214 7,000  Descending Indianapolis Center
Thu 08:58:22 PM 40.3836 -83.2406 44° Northeast 183 211 7,100 49 Climbing Indianapolis Center
Thu 08:59:23 PM 40.4203 -83.1947 44° Northeast 181 208 7,100 -49 Level Indianapolis Center
Thu 09:00:25 PM 40.4547 -83.1450 48° Northeast 182 209 7,000 -49 Descending Indianapolis Center
Thu 09:01:26 PM 40.4897 -83.0994 45° Northeast 176 203 7,000 49 Level Indianapolis Center
Thu 09:02:27 PM 40.5244 -83.0514 46° Northeast 177 204 7,100 49 Climbing Indianapolis Center
Thu 09:03:29 PM 40.5594 -83.0039 46° Northeast 179 206 7,100  Level Indianapolis Center
Thu 09:04:30 PM 40.5944 -82.9597 44° Northeast 175 201 7,100  Level Indianapolis Center
Thu 09:05:32 PM 40.6283 -82.9108 48° Northeast 177 204 7,100  Level Indianapolis Center
Thu 09:06:33 PM 40.6625 -82.8622 47° Northeast 179 206 7,100 49 Level Indianapolis Center
Thu 09:07:34 PM 40.6969 -82.8136 47° Northeast 180 207 7,200  Climbing Indianapolis Center
Thu 09:08:36 PM 40.7372 -82.7564 47° Northeast 180 207 7,100  Descending Indianapolis Center
Thu 09:09:37 PM 40.7722 -82.7089 46° Northeast 180 207 7,200 98 Climbing Indianapolis Center

Login

Don't have an account? Register now (free) for customized features, flight alerts, and more!